sensor_id;sensor_type;location;lat;lon;timestamp;P1;durP1;ratioP1;P2;durP2;ratioP2
47021;SDS011;32779;52.264;6.154;2024-01-06T00:00:36;24.92;;;18.15;;
47021;SDS011;32779;52.264;6.154;2024-01-06T00:03:02;26.02;;;17.92;;
47021;SDS011;32779;52.264;6.154;2024-01-06T00:05:27;22.38;;;15.77;;
47021;SDS011;32779;52.264;6.154;2024-01-06T00:07:53;24.42;;;15.80;;
47021;SDS011;32779;52.264;6.154;2024-01-06T00:10:18;20.42;;;15.57;;
47021;SDS011;32779;52.264;6.154;2024-01-06T00:12:44;21.83;;;16.42;;
47021;SDS011;32779;52.264;6.154;2024-01-06T00:15:10;23.83;;;16.23;;
47021;SDS011;32779;52.264;6.154;2024-01-06T00:17:36;21.23;;;15.35;;
47021;SDS011;32779;52.264;6.154;2024-01-06T00:20:01;22.25;;;16.17;;
47021;SDS011;32779;52.264;6.154;2024-01-06T00:22:27;21.50;;;15.45;;
47021;SDS011;32779;52.264;6.154;2024-01-06T00:24:53;21.73;;;15.68;;
47021;SDS011;32779;52.264;6.154;2024-01-06T00:27:19;21.23;;;15.50;;
47021;SDS011;32779;52.264;6.154;2024-01-06T00:29:44;23.92;;;16.35;;
47021;SDS011;32779;52.264;6.154;2024-01-06T00:32:10;22.90;;;16.50;;
47021;SDS011;32779;52.264;6.154;2024-01-06T00:37:02;25.27;;;16.90;;
47021;SDS011;32779;52.264;6.154;2024-01-06T00:39:28;26.15;;;16.88;;
47021;SDS011;32779;52.264;6.154;2024-01-06T00:41:53;25.02;;;16.95;;
47021;SDS011;32779;52.264;6.154;2024-01-06T00:44:19;29.10;;;17.40;;
47021;SDS011;32779;52.264;6.154;2024-01-06T00:46:45;24.85;;;17.67;;
47021;SDS011;32779;52.264;6.154;2024-01-06T00:49:11;28.35;;;19.05;;
47021;SDS011;32779;52.264;6.154;2024-01-06T00:51:36;26.70;;;18.27;;
47021;SDS011;32779;52.264;6.154;2024-01-06T00:54:02;26.25;;;17.98;;
47021;SDS011;32779;52.264;6.154;2024-01-06T00:56:27;24.42;;;17.95;;
47021;SDS011;32779;52.264;6.154;2024-01-06T00:58:54;22.98;;;16.52;;
47021;SDS011;32779;52.264;6.154;2024-01-06T01:01:20;24.42;;;17.25;;
47021;SDS011;32779;52.264;6.154;2024-01-06T01:03:46;22.58;;;16.30;;
47021;SDS011;32779;52.264;6.154;2024-01-06T01:06:12;24.75;;;17.50;;
47021;SDS011;32779;52.264;6.154;2024-01-06T01:08:38;21.17;;;15.63;;
47021;SDS011;32779;52.264;6.154;2024-01-06T01:11:03;22.17;;;15.85;;
47021;SDS011;32779;52.264;6.154;2024-01-06T01:13:29;20.35;;;15.48;;
47021;SDS011;32779;52.264;6.154;2024-01-06T01:16:04;18.17;;;13.35;;
47021;SDS011;32779;52.264;6.154;2024-01-06T01:18:30;17.95;;;13.45;;
47021;SDS011;32779;52.264;6.154;2024-01-06T01:20:55;19.17;;;13.38;;
47021;SDS011;32779;52.264;6.154;2024-01-06T01:23:21;16.08;;;12.50;;
47021;SDS011;32779;52.264;6.154;2024-01-06T01:25:46;17.88;;;14.00;;
47021;SDS011;32779;52.264;6.154;2024-01-06T01:28:12;18.67;;;13.88;;
47021;SDS011;32779;52.264;6.154;2024-01-06T01:30:38;22.15;;;14.98;;
47021;SDS011;32779;52.264;6.154;2024-01-06T01:33:04;22.83;;;16.13;;
47021;SDS011;32779;52.264;6.154;2024-01-06T01:35:29;20.08;;;15.65;;
47021;SDS011;32779;52.264;6.154;2024-01-06T01:37:55;21.85;;;16.65;;
47021;SDS011;32779;52.264;6.154;2024-01-06T01:40:21;23.15;;;16.95;;
47021;SDS011;32779;52.264;6.154;2024-01-06T01:42:46;24.40;;;16.73;;
47021;SDS011;32779;52.264;6.154;2024-01-06T01:45:12;23.45;;;16.75;;
47021;SDS011;32779;52.264;6.154;2024-01-06T01:47:37;28.25;;;17.15;;
47021;SDS011;32779;52.264;6.154;2024-01-06T01:50:04;25.40;;;17.63;;
47021;SDS011;32779;52.264;6.154;2024-01-06T01:52:30;27.88;;;17.27;;
47021;SDS011;32779;52.264;6.154;2024-01-06T01:54:57;28.05;;;17.85;;
47021;SDS011;32779;52.264;6.154;2024-01-06T01:57:24;25.67;;;17.83;;
47021;SDS011;32779;52.264;6.154;2024-01-06T01:59:50;26.58;;;17.08;;
47021;SDS011;32779;52.264;6.154;2024-01-06T02:02:18;25.40;;;17.48;;
47021;SDS011;32779;52.264;6.154;2024-01-06T02:04:46;25.83;;;17.33;;
47021;SDS011;32779;52.264;6.154;2024-01-06T02:07:12;23.42;;;17.25;;
47021;SDS011;32779;52.264;6.154;2024-01-06T02:09:38;25.02;;;17.65;;
47021;SDS011;32779;52.264;6.154;2024-01-06T02:12:04;23.23;;;17.35;;
47021;SDS011;32779;52.264;6.154;2024-01-06T02:14:30;24.85;;;17.17;;
47021;SDS011;32779;52.264;6.154;2024-01-06T02:16:57;29.15;;;18.55;;
47021;SDS011;32779;52.264;6.154;2024-01-06T02:19:23;29.80;;;19.80;;
47021;SDS011;32779;52.264;6.154;2024-01-06T02:26:42;29.30;;;18.05;;
47021;SDS011;32779;52.264;6.154;2024-01-06T02:29:08;27.98;;;19.42;;
47021;SDS011;32779;52.264;6.154;2024-01-06T02:31:34;31.85;;;20.95;;
47021;SDS011;32779;52.264;6.154;2024-01-06T02:33:59;33.15;;;20.20;;
47021;SDS011;32779;52.264;6.154;2024-01-06T02:36:25;31.75;;;19.52;;
47021;SDS011;32779;52.264;6.154;2024-01-06T02:38:51;37.97;;;21.55;;
47021;SDS011;32779;52.264;6.154;2024-01-06T02:41:16;35.05;;;19.85;;
47021;SDS011;32779;52.264;6.154;2024-01-06T02:43:42;34.10;;;19.90;;
47021;SDS011;32779;52.264;6.154;2024-01-06T02:46:08;33.33;;;20.33;;
47021;SDS011;32779;52.264;6.154;2024-01-06T02:48:33;36.38;;;20.30;;
47021;SDS011;32779;52.264;6.154;2024-01-06T02:50:59;36.03;;;21.20;;
47021;SDS011;32779;52.264;6.154;2024-01-06T02:53:24;36.83;;;21.90;;
47021;SDS011;32779;52.264;6.154;2024-01-06T02:55:50;35.63;;;21.58;;
47021;SDS011;32779;52.264;6.154;2024-01-06T02:58:16;34.88;;;23.00;;
47021;SDS011;32779;52.264;6.154;2024-01-06T03:00:41;37.42;;;23.13;;
47021;SDS011;32779;52.264;6.154;2024-01-06T03:03:07;38.83;;;23.55;;
47021;SDS011;32779;52.264;6.154;2024-01-06T03:05:34;36.80;;;22.50;;
47021;SDS011;32779;52.264;6.154;2024-01-06T03:08:01;41.90;;;24.58;;
47021;SDS011;32779;52.264;6.154;2024-01-06T03:10:27;40.13;;;23.50;;
47021;SDS011;32779;52.264;6.154;2024-01-06T03:12:53;37.28;;;23.77;;
47021;SDS011;32779;52.264;6.154;2024-01-06T03:15:19;41.30;;;24.35;;
47021;SDS011;32779;52.264;6.154;2024-01-06T03:17:44;38.40;;;21.83;;
47021;SDS011;32779;52.264;6.154;2024-01-06T03:20:10;30.67;;;20.10;;
47021;SDS011;32779;52.264;6.154;2024-01-06T03:22:35;32.65;;;19.77;;
47021;SDS011;32779;52.264;6.154;2024-01-06T03:25:03;31.33;;;18.98;;
47021;SDS011;32779;52.264;6.154;2024-01-06T03:27:29;32.25;;;18.92;;
47021;SDS011;32779;52.264;6.154;2024-01-06T03:29:54;29.35;;;18.90;;
47021;SDS011;32779;52.264;6.154;2024-01-06T03:32:20;30.88;;;18.88;;
47021;SDS011;32779;52.264;6.154;2024-01-06T03:34:46;35.08;;;19.35;;
47021;SDS011;32779;52.264;6.154;2024-01-06T03:37:12;29.00;;;19.38;;
47021;SDS011;32779;52.264;6.154;2024-01-06T03:39:38;30.10;;;18.25;;
47021;SDS011;32779;52.264;6.154;2024-01-06T03:42:03;33.80;;;19.85;;
47021;SDS011;32779;52.264;6.154;2024-01-06T03:44:29;31.40;;;19.95;;
47021;SDS011;32779;52.264;6.154;2024-01-06T03:46:58;31.13;;;20.05;;
47021;SDS011;32779;52.264;6.154;2024-01-06T03:49:24;33.13;;;19.65;;
47021;SDS011;32779;52.264;6.154;2024-01-06T03:51:53;33.13;;;20.35;;
47021;SDS011;32779;52.264;6.154;2024-01-06T03:54:19;34.47;;;20.50;;
47021;SDS011;32779;52.264;6.154;2024-01-06T03:56:44;34.25;;;21.08;;
47021;SDS011;32779;52.264;6.154;2024-01-06T03:59:10;33.10;;;19.65;;
47021;SDS011;32779;52.264;6.154;2024-01-06T04:01:36;32.85;;;20.30;;
47021;SDS011;32779;52.264;6.154;2024-01-06T04:04:02;34.72;;;21.08;;
47021;SDS011;32779;52.264;6.154;2024-01-06T04:06:29;35.25;;;22.05;;
47021;SDS011;32779;52.264;6.154;2024-01-06T04:08:54;35.30;;;21.60;;
47021;SDS011;32779;52.264;6.154;2024-01-06T04:11:20;34.10;;;21.27;;
47021;SDS011;32779;52.264;6.154;2024-01-06T04:16:12;33.90;;;19.92;;
47021;SDS011;32779;52.264;6.154;2024-01-06T04:18:37;30.45;;;19.38;;
47021;SDS011;32779;52.264;6.154;2024-01-06T04:21:03;33.08;;;19.90;;
47021;SDS011;32779;52.264;6.154;2024-01-06T04:23:30;31.35;;;18.55;;
47021;SDS011;32779;52.264;6.154;2024-01-06T04:25:56;30.55;;;19.10;;
47021;SDS011;32779;52.264;6.154;2024-01-06T04:28:21;31.88;;;20.08;;
47021;SDS011;32779;52.264;6.154;2024-01-06T04:30:47;30.70;;;18.85;;
47021;SDS011;32779;52.264;6.154;2024-01-06T04:33:13;33.03;;;19.92;;
47021;SDS011;32779;52.264;6.154;2024-01-06T04:35:39;30.48;;;18.45;;
47021;SDS011;32779;52.264;6.154;2024-01-06T04:38:04;29.35;;;19.45;;
47021;SDS011;32779;52.264;6.154;2024-01-06T04:40:30;29.77;;;19.15;;
47021;SDS011;32779;52.264;6.154;2024-01-06T04:42:56;28.65;;;19.45;;
47021;SDS011;32779;52.264;6.154;2024-01-06T04:45:21;31.73;;;19.02;;
47021;SDS011;32779;52.264;6.154;2024-01-06T04:47:49;28.23;;;17.58;;
47021;SDS011;32779;52.264;6.154;2024-01-06T04:50:15;29.25;;;17.08;;
47021;SDS011;32779;52.264;6.154;2024-01-06T04:52:41;29.38;;;18.08;;
47021;SDS011;32779;52.264;6.154;2024-01-06T04:55:07;29.98;;;18.92;;
47021;SDS011;32779;52.264;6.154;2024-01-06T04:57:33;28.98;;;18.23;;
47021;SDS011;32779;52.264;6.154;2024-01-06T04:59:58;27.63;;;17.83;;
47021;SDS011;32779;52.264;6.154;2024-01-06T05:02:25;28.02;;;17.58;;
47021;SDS011;32779;52.264;6.154;2024-01-06T05:07:16;27.00;;;16.52;;
47021;SDS011;32779;52.264;6.154;2024-01-06T05:09:42;32.72;;;18.15;;
47021;SDS011;32779;52.264;6.154;2024-01-06T05:12:07;26.13;;;16.60;;
47021;SDS011;32779;52.264;6.154;2024-01-06T05:14:33;30.10;;;18.55;;
47021;SDS011;32779;52.264;6.154;2024-01-06T05:16:59;27.95;;;18.75;;
47021;SDS011;32779;52.264;6.154;2024-01-06T05:19:24;29.20;;;18.63;;
47021;SDS011;32779;52.264;6.154;2024-01-06T05:21:50;28.83;;;18.75;;
47021;SDS011;32779;52.264;6.154;2024-01-06T05:24:18;28.45;;;18.70;;
47021;SDS011;32779;52.264;6.154;2024-01-06T05:26:44;29.58;;;18.50;;
47021;SDS011;32779;52.264;6.154;2024-01-06T05:29:10;28.70;;;18.10;;
47021;SDS011;32779;52.264;6.154;2024-01-06T05:31:35;30.17;;;18.95;;
47021;SDS011;32779;52.264;6.154;2024-01-06T05:34:01;30.35;;;19.42;;
47021;SDS011;32779;52.264;6.154;2024-01-06T05:36:26;28.08;;;18.10;;
47021;SDS011;32779;52.264;6.154;2024-01-06T05:38:52;27.77;;;17.92;;
47021;SDS011;32779;52.264;6.154;2024-01-06T05:41:18;29.27;;;19.80;;
47021;SDS011;32779;52.264;6.154;2024-01-06T05:43:44;30.67;;;19.52;;
47021;SDS011;32779;52.264;6.154;2024-01-06T05:46:09;29.90;;;19.08;;
47021;SDS011;32779;52.264;6.154;2024-01-06T05:48:35;31.05;;;19.60;;
47021;SDS011;32779;52.264;6.154;2024-01-06T05:53:31;26.23;;;16.65;;
47021;SDS011;32779;52.264;6.154;2024-01-06T05:55:56;27.85;;;17.77;;
47021;SDS011;32779;52.264;6.154;2024-01-06T05:58:22;28.88;;;17.67;;
47021;SDS011;32779;52.264;6.154;2024-01-06T06:00:48;29.05;;;17.77;;
47021;SDS011;32779;52.264;6.154;2024-01-06T06:03:13;26.92;;;17.63;;
47021;SDS011;32779;52.264;6.154;2024-01-06T06:05:39;27.77;;;17.50;;
47021;SDS011;32779;52.264;6.154;2024-01-06T06:08:05;32.25;;;17.80;;
47021;SDS011;32779;52.264;6.154;2024-01-06T06:10:31;29.45;;;17.67;;
47021;SDS011;32779;52.264;6.154;2024-01-06T06:13:06;32.85;;;18.27;;
47021;SDS011;32779;52.264;6.154;2024-01-06T06:15:35;33.00;;;18.42;;
47021;SDS011;32779;52.264;6.154;2024-01-06T06:18:01;30.95;;;19.27;;
47021;SDS011;32779;52.264;6.154;2024-01-06T06:20:26;32.70;;;19.95;;
47021;SDS011;32779;52.264;6.154;2024-01-06T06:22:52;35.35;;;19.85;;
47021;SDS011;32779;52.264;6.154;2024-01-06T06:25:18;35.28;;;20.17;;
47021;SDS011;32779;52.264;6.154;2024-01-06T06:27:44;32.53;;;19.60;;
47021;SDS011;32779;52.264;6.154;2024-01-06T06:30:09;34.85;;;20.83;;
47021;SDS011;32779;52.264;6.154;2024-01-06T06:32:35;34.90;;;20.35;;
47021;SDS011;32779;52.264;6.154;2024-01-06T06:35:01;35.30;;;19.57;;
47021;SDS011;32779;52.264;6.154;2024-01-06T06:37:26;35.30;;;21.60;;
47021;SDS011;32779;52.264;6.154;2024-01-06T06:39:52;35.75;;;20.40;;
47021;SDS011;32779;52.264;6.154;2024-01-06T06:42:18;39.17;;;22.50;;
47021;SDS011;32779;52.264;6.154;2024-01-06T06:44:43;39.10;;;21.73;;
47021;SDS011;32779;52.264;6.154;2024-01-06T06:47:09;43.40;;;23.75;;
47021;SDS011;32779;52.264;6.154;2024-01-06T06:49:34;42.85;;;24.85;;
47021;SDS011;32779;52.264;6.154;2024-01-06T06:52:00;45.72;;;25.45;;
47021;SDS011;32779;52.264;6.154;2024-01-06T06:54:25;40.78;;;23.27;;
47021;SDS011;32779;52.264;6.154;2024-01-06T06:56:51;38.30;;;23.48;;
47021;SDS011;32779;52.264;6.154;2024-01-06T06:59:16;44.50;;;25.20;;
47021;SDS011;32779;52.264;6.154;2024-01-06T07:01:42;40.58;;;22.75;;
47021;SDS011;32779;52.264;6.154;2024-01-06T07:04:08;36.25;;;22.83;;
47021;SDS011;32779;52.264;6.154;2024-01-06T07:06:33;41.38;;;24.42;;
47021;SDS011;32779;52.264;6.154;2024-01-06T07:08:59;39.25;;;23.13;;
47021;SDS011;32779;52.264;6.154;2024-01-06T07:11:25;35.53;;;21.30;;
47021;SDS011;32779;52.264;6.154;2024-01-06T07:13:50;35.42;;;20.92;;
47021;SDS011;32779;52.264;6.154;2024-01-06T07:16:16;38.80;;;21.52;;
47021;SDS011;32779;52.264;6.154;2024-01-06T07:18:42;31.23;;;20.27;;
47021;SDS011;32779;52.264;6.154;2024-01-06T07:21:08;37.28;;;20.33;;
47021;SDS011;32779;52.264;6.154;2024-01-06T07:23:34;30.20;;;18.35;;
47021;SDS011;32779;52.264;6.154;2024-01-06T07:26:00;31.23;;;18.45;;
47021;SDS011;32779;52.264;6.154;2024-01-06T07:28:25;32.20;;;17.58;;
47021;SDS011;32779;52.264;6.154;2024-01-06T07:30:51;29.75;;;18.35;;
47021;SDS011;32779;52.264;6.154;2024-01-06T07:33:17;31.88;;;17.95;;
47021;SDS011;32779;52.264;6.154;2024-01-06T07:35:43;34.08;;;18.75;;
47021;SDS011;32779;52.264;6.154;2024-01-06T07:38:09;31.63;;;17.70;;
47021;SDS011;32779;52.264;6.154;2024-01-06T07:40:35;33.97;;;19.13;;
47021;SDS011;32779;52.264;6.154;2024-01-06T07:43:01;35.70;;;18.25;;
47021;SDS011;32779;52.264;6.154;2024-01-06T07:45:27;32.90;;;17.77;;
47021;SDS011;32779;52.264;6.154;2024-01-06T07:47:52;33.30;;;17.50;;
47021;SDS011;32779;52.264;6.154;2024-01-06T07:50:18;30.63;;;17.58;;
47021;SDS011;32779;52.264;6.154;2024-01-06T07:52:44;30.60;;;17.00;;
47021;SDS011;32779;52.264;6.154;2024-01-06T07:55:09;29.02;;;16.98;;
47021;SDS011;32779;52.264;6.154;2024-01-06T07:57:35;30.30;;;17.25;;
47021;SDS011;32779;52.264;6.154;2024-01-06T08:00:01;31.05;;;17.42;;
47021;SDS011;32779;52.264;6.154;2024-01-06T08:02:27;32.55;;;17.38;;
47021;SDS011;32779;52.264;6.154;2024-01-06T08:04:52;33.53;;;18.23;;
47021;SDS011;32779;52.264;6.154;2024-01-06T08:07:20;35.10;;;19.23;;
47021;SDS011;32779;52.264;6.154;2024-01-06T08:09:46;33.05;;;17.92;;
47021;SDS011;32779;52.264;6.154;2024-01-06T08:12:12;34.05;;;17.73;;
47021;SDS011;32779;52.264;6.154;2024-01-06T08:14:38;34.97;;;18.02;;
47021;SDS011;32779;52.264;6.154;2024-01-06T08:17:03;31.75;;;16.85;;
47021;SDS011;32779;52.264;6.154;2024-01-06T08:19:29;31.35;;;21.23;;
47021;SDS011;32779;52.264;6.154;2024-01-06T08:21:57;28.67;;;16.17;;
47021;SDS011;32779;52.264;6.154;2024-01-06T08:24:22;26.67;;;15.55;;
47021;SDS011;32779;52.264;6.154;2024-01-06T08:26:49;30.65;;;16.83;;
47021;SDS011;32779;52.264;6.154;2024-01-06T08:29:15;30.00;;;16.00;;
47021;SDS011;32779;52.264;6.154;2024-01-06T08:31:44;35.20;;;17.33;;
47021;SDS011;32779;52.264;6.154;2024-01-06T08:34:10;30.00;;;17.10;;
47021;SDS011;32779;52.264;6.154;2024-01-06T08:36:35;28.95;;;17.35;;
47021;SDS011;32779;52.264;6.154;2024-01-06T08:39:01;28.42;;;16.42;;
47021;SDS011;32779;52.264;6.154;2024-01-06T08:41:26;31.00;;;17.50;;
47021;SDS011;32779;52.264;6.154;2024-01-06T08:43:52;26.15;;;16.55;;
47021;SDS011;32779;52.264;6.154;2024-01-06T08:46:18;28.73;;;15.70;;
47021;SDS011;32779;52.264;6.154;2024-01-06T08:48:43;30.15;;;16.92;;
47021;SDS011;32779;52.264;6.154;2024-01-06T08:51:09;28.60;;;16.83;;
47021;SDS011;32779;52.264;6.154;2024-01-06T08:53:34;34.20;;;17.88;;
47021;SDS011;32779;52.264;6.154;2024-01-06T08:56:00;29.27;;;17.70;;
47021;SDS011;32779;52.264;6.154;2024-01-06T08:58:26;28.02;;;16.33;;
47021;SDS011;32779;52.264;6.154;2024-01-06T09:00:52;29.17;;;16.85;;
47021;SDS011;32779;52.264;6.154;2024-01-06T09:03:18;30.05;;;17.95;;
47021;SDS011;32779;52.264;6.154;2024-01-06T09:05:49;32.25;;;17.50;;
47021;SDS011;32779;52.264;6.154;2024-01-06T09:08:16;29.88;;;17.23;;
47021;SDS011;32779;52.264;6.154;2024-01-06T09:10:42;32.13;;;17.98;;
47021;SDS011;32779;52.264;6.154;2024-01-06T09:13:08;31.45;;;18.08;;
47021;SDS011;32779;52.264;6.154;2024-01-06T09:15:33;29.98;;;17.17;;
47021;SDS011;32779;52.264;6.154;2024-01-06T09:17:59;33.13;;;18.17;;
47021;SDS011;32779;52.264;6.154;2024-01-06T09:20:25;29.25;;;17.77;;
47021;SDS011;32779;52.264;6.154;2024-01-06T09:22:52;29.48;;;17.80;;
47021;SDS011;32779;52.264;6.154;2024-01-06T09:25:18;30.63;;;18.48;;
47021;SDS011;32779;52.264;6.154;2024-01-06T09:27:44;31.05;;;16.83;;
47021;SDS011;32779;52.264;6.154;2024-01-06T09:30:09;32.25;;;17.70;;
47021;SDS011;32779;52.264;6.154;2024-01-06T09:35:01;29.67;;;17.60;;
47021;SDS011;32779;52.264;6.154;2024-01-06T09:37:27;29.98;;;17.60;;
47021;SDS011;32779;52.264;6.154;2024-01-06T09:39:52;28.98;;;17.25;;
47021;SDS011;32779;52.264;6.154;2024-01-06T09:42:18;31.42;;;16.20;;
47021;SDS011;32779;52.264;6.154;2024-01-06T09:44:44;30.58;;;17.65;;
47021;SDS011;32779;52.264;6.154;2024-01-06T09:47:11;28.23;;;17.13;;
47021;SDS011;32779;52.264;6.154;2024-01-06T09:49:38;30.35;;;16.50;;
47021;SDS011;32779;52.264;6.154;2024-01-06T09:52:08;28.60;;;16.98;;
47021;SDS011;32779;52.264;6.154;2024-01-06T09:54:45;27.23;;;16.80;;
47021;SDS011;32779;52.264;6.154;2024-01-06T09:57:16;26.48;;;16.67;;
47021;SDS011;32779;52.264;6.154;2024-01-06T09:59:43;24.38;;;15.52;;
47021;SDS011;32779;52.264;6.154;2024-01-06T10:02:10;26.85;;;16.40;;
47021;SDS011;32779;52.264;6.154;2024-01-06T10:04:40;29.80;;;16.48;;
47021;SDS011;32779;52.264;6.154;2024-01-06T10:07:07;27.40;;;16.33;;
47021;SDS011;32779;52.264;6.154;2024-01-06T10:09:33;30.08;;;16.90;;
47021;SDS011;32779;52.264;6.154;2024-01-06T10:11:58;30.35;;;18.35;;
47021;SDS011;32779;52.264;6.154;2024-01-06T10:14:27;28.60;;;17.75;;
47021;SDS011;32779;52.264;6.154;2024-01-06T10:16:52;30.45;;;17.98;;
47021;SDS011;32779;52.264;6.154;2024-01-06T10:19:18;29.88;;;17.73;;
47021;SDS011;32779;52.264;6.154;2024-01-06T10:21:44;29.50;;;17.70;;
47021;SDS011;32779;52.264;6.154;2024-01-06T10:24:10;27.55;;;17.95;;
47021;SDS011;32779;52.264;6.154;2024-01-06T10:26:36;29.33;;;17.42;;
47021;SDS011;32779;52.264;6.154;2024-01-06T10:29:02;30.63;;;16.65;;
47021;SDS011;32779;52.264;6.154;2024-01-06T10:31:29;28.10;;;18.13;;
47021;SDS011;32779;52.264;6.154;2024-01-06T10:33:55;26.20;;;16.35;;
47021;SDS011;32779;52.264;6.154;2024-01-06T10:36:24;25.77;;;16.77;;
47021;SDS011;32779;52.264;6.154;2024-01-06T10:38:52;28.67;;;17.52;;
47021;SDS011;32779;52.264;6.154;2024-01-06T10:41:17;24.30;;;16.77;;
47021;SDS011;32779;52.264;6.154;2024-01-06T10:43:45;25.20;;;16.90;;
47021;SDS011;32779;52.264;6.154;2024-01-06T10:46:13;28.88;;;17.95;;
47021;SDS011;32779;52.264;6.154;2024-01-06T10:48:41;25.30;;;17.88;;
47021;SDS011;32779;52.264;6.154;2024-01-06T10:51:08;23.08;;;16.17;;
47021;SDS011;32779;52.264;6.154;2024-01-06T10:53:35;26.27;;;16.08;;
47021;SDS011;32779;52.264;6.154;2024-01-06T10:56:02;23.95;;;17.65;;
47021;SDS011;32779;52.264;6.154;2024-01-06T10:58:29;23.48;;;16.27;;
47021;SDS011;32779;52.264;6.154;2024-01-06T11:00:57;22.70;;;16.55;;
47021;SDS011;32779;52.264;6.154;2024-01-06T11:03:23;24.98;;;16.10;;
47021;SDS011;32779;52.264;6.154;2024-01-06T11:05:50;22.85;;;15.52;;
47021;SDS011;32779;52.264;6.154;2024-01-06T11:08:17;23.77;;;16.33;;
47021;SDS011;32779;52.264;6.154;2024-01-06T11:10:43;23.00;;;16.17;;
47021;SDS011;32779;52.264;6.154;2024-01-06T11:15:44;21.88;;;15.73;;
47021;SDS011;32779;52.264;6.154;2024-01-06T11:23:39;21.25;;;15.63;;
47021;SDS011;32779;52.264;6.154;2024-01-06T11:26:09;24.88;;;15.95;;
47021;SDS011;32779;52.264;6.154;2024-01-06T11:28:44;22.65;;;16.67;;
47021;SDS011;32779;52.264;6.154;2024-01-06T11:31:17;23.20;;;14.95;;
47021;SDS011;32779;52.264;6.154;2024-01-06T11:33:44;22.70;;;16.95;;
47021;SDS011;32779;52.264;6.154;2024-01-06T11:36:12;21.75;;;15.15;;
47021;SDS011;32779;52.264;6.154;2024-01-06T11:38:40;21.92;;;15.80;;
47021;SDS011;32779;52.264;6.154;2024-01-06T11:41:10;19.27;;;14.50;;
47021;SDS011;32779;52.264;6.154;2024-01-06T11:43:55;21.70;;;15.68;;
47021;SDS011;32779;52.264;6.154;2024-01-06T11:46:21;19.95;;;14.75;;
47021;SDS011;32779;52.264;6.154;2024-01-06T11:48:46;21.73;;;15.68;;
47021;SDS011;32779;52.264;6.154;2024-01-06T11:51:16;21.77;;;15.15;;
47021;SDS011;32779;52.264;6.154;2024-01-06T11:53:43;22.30;;;16.02;;
47021;SDS011;32779;52.264;6.154;2024-01-06T11:56:10;21.70;;;15.90;;
47021;SDS011;32779;52.264;6.154;2024-01-06T11:58:39;22.83;;;16.52;;
47021;SDS011;32779;52.264;6.154;2024-01-06T12:01:05;21.60;;;15.65;;
47021;SDS011;32779;52.264;6.154;2024-01-06T12:03:31;23.13;;;16.23;;
47021;SDS011;32779;52.264;6.154;2024-01-06T12:06:02;18.88;;;14.88;;
47021;SDS011;32779;52.264;6.154;2024-01-06T12:08:29;20.90;;;16.38;;
47021;SDS011;32779;52.264;6.154;2024-01-06T12:11:04;19.98;;;15.10;;
47021;SDS011;32779;52.264;6.154;2024-01-06T12:13:30;23.67;;;16.15;;
47021;SDS011;32779;52.264;6.154;2024-01-06T12:15:56;22.85;;;15.50;;
47021;SDS011;32779;52.264;6.154;2024-01-06T12:18:22;21.60;;;14.95;;
47021;SDS011;32779;52.264;6.154;2024-01-06T12:20:50;23.08;;;16.52;;
47021;SDS011;32779;52.264;6.154;2024-01-06T12:25:53;23.40;;;15.73;;
47021;SDS011;32779;52.264;6.154;2024-01-06T12:28:27;23.38;;;16.38;;
47021;SDS011;32779;52.264;6.154;2024-01-06T12:30:53;21.77;;;16.10;;
47021;SDS011;32779;52.264;6.154;2024-01-06T12:33:28;22.85;;;16.58;;
47021;SDS011;32779;52.264;6.154;2024-01-06T12:35:54;22.02;;;16.10;;
47021;SDS011;32779;52.264;6.154;2024-01-06T12:38:19;24.38;;;16.38;;
47021;SDS011;32779;52.264;6.154;2024-01-06T12:40:45;22.27;;;15.82;;
47021;SDS011;32779;52.264;6.154;2024-01-06T12:43:11;21.33;;;15.25;;
47021;SDS011;32779;52.264;6.154;2024-01-06T12:45:37;21.90;;;15.75;;
47021;SDS011;32779;52.264;6.154;2024-01-06T12:48:03;21.10;;;15.35;;
47021;SDS011;32779;52.264;6.154;2024-01-06T12:50:28;20.17;;;15.63;;
47021;SDS011;32779;52.264;6.154;2024-01-06T12:52:54;21.17;;;15.60;;
47021;SDS011;32779;52.264;6.154;2024-01-06T12:55:20;19.75;;;15.25;;
47021;SDS011;32779;52.264;6.154;2024-01-06T12:57:45;21.38;;;16.08;;
47021;SDS011;32779;52.264;6.154;2024-01-06T13:00:11;22.60;;;17.23;;
47021;SDS011;32779;52.264;6.154;2024-01-06T13:02:37;21.55;;;15.52;;
47021;SDS011;32779;52.264;6.154;2024-01-06T13:05:03;20.08;;;15.55;;
47021;SDS011;32779;52.264;6.154;2024-01-06T13:07:29;20.23;;;15.75;;
47021;SDS011;32779;52.264;6.154;2024-01-06T13:09:55;22.30;;;15.90;;
47021;SDS011;32779;52.264;6.154;2024-01-06T13:12:21;21.30;;;15.85;;
47021;SDS011;32779;52.264;6.154;2024-01-06T13:14:48;20.10;;;16.40;;
47021;SDS011;32779;52.264;6.154;2024-01-06T13:17:15;19.92;;;15.60;;
47021;SDS011;32779;52.264;6.154;2024-01-06T13:19:41;20.52;;;15.77;;
47021;SDS011;32779;52.264;6.154;2024-01-06T13:22:07;21.17;;;16.42;;
47021;SDS011;32779;52.264;6.154;2024-01-06T13:24:32;20.13;;;15.88;;
47021;SDS011;32779;52.264;6.154;2024-01-06T13:26:58;22.20;;;16.43;;
47021;SDS011;32779;52.264;6.154;2024-01-06T13:29:27;20.73;;;16.17;;
47021;SDS011;32779;52.264;6.154;2024-01-06T13:31:53;22.83;;;16.30;;
47021;SDS011;32779;52.264;6.154;2024-01-06T13:34:19;23.10;;;16.27;;
47021;SDS011;32779;52.264;6.154;2024-01-06T13:36:44;21.45;;;16.10;;
47021;SDS011;32779;52.264;6.154;2024-01-06T13:39:10;20.45;;;16.05;;
47021;SDS011;32779;52.264;6.154;2024-01-06T13:41:45;20.40;;;15.48;;
47021;SDS011;32779;52.264;6.154;2024-01-06T13:44:12;22.67;;;15.70;;
47021;SDS011;32779;52.264;6.154;2024-01-06T13:46:38;21.45;;;15.18;;
47021;SDS011;32779;52.264;6.154;2024-01-06T13:49:06;22.83;;;16.20;;
47021;SDS011;32779;52.264;6.154;2024-01-06T13:51:37;20.63;;;15.43;;
47021;SDS011;32779;52.264;6.154;2024-01-06T13:54:06;25.23;;;16.83;;
47021;SDS011;32779;52.264;6.154;2024-01-06T13:56:31;23.00;;;16.60;;
47021;SDS011;32779;52.264;6.154;2024-01-06T13:58:57;22.33;;;15.48;;
47021;SDS011;32779;52.264;6.154;2024-01-06T14:01:23;21.30;;;15.02;;
47021;SDS011;32779;52.264;6.154;2024-01-06T14:06:15;22.45;;;15.30;;
47021;SDS011;32779;52.264;6.154;2024-01-06T14:08:42;24.08;;;15.55;;
47021;SDS011;32779;52.264;6.154;2024-01-06T14:11:08;19.98;;;13.70;;
47021;SDS011;32779;52.264;6.154;2024-01-06T14:13:34;26.50;;;15.13;;
47021;SDS011;32779;52.264;6.154;2024-01-06T14:16:01;28.25;;;15.43;;
47021;SDS011;32779;52.264;6.154;2024-01-06T14:18:26;20.38;;;14.05;;
47021;SDS011;32779;52.264;6.154;2024-01-06T14:20:52;21.02;;;14.10;;
47021;SDS011;32779;52.264;6.154;2024-01-06T14:23:20;22.55;;;14.70;;
47021;SDS011;32779;52.264;6.154;2024-01-06T14:25:46;19.58;;;13.55;;
47021;SDS011;32779;52.264;6.154;2024-01-06T14:28:12;21.00;;;13.63;;
47021;SDS011;32779;52.264;6.154;2024-01-06T14:30:38;18.55;;;13.88;;
47021;SDS011;32779;52.264;6.154;2024-01-06T14:33:03;17.85;;;13.32;;
47021;SDS011;32779;52.264;6.154;2024-01-06T14:35:29;19.17;;;13.20;;
47021;SDS011;32779;52.264;6.154;2024-01-06T14:37:55;18.23;;;13.63;;
47021;SDS011;32779;52.264;6.154;2024-01-06T14:40:21;22.40;;;13.02;;
47021;SDS011;32779;52.264;6.154;2024-01-06T14:42:47;19.13;;;13.35;;
47021;SDS011;32779;52.264;6.154;2024-01-06T14:45:13;20.15;;;13.25;;